createdAt,value
2019-04-27T00:00:47.099Z,11.21
2019-04-27T00:03:17.156Z,11.24
2019-04-27T00:05:47.234Z,11.20
2019-04-27T00:08:38.603Z,11.14
2019-04-27T00:11:10.438Z,11.07
2019-04-27T00:13:40.688Z,11.05
2019-04-27T00:16:11.235Z,11.03
2019-04-27T00:18:49.716Z,10.99
2019-04-27T00:21:18.686Z,10.97
2019-04-27T00:23:48.302Z,10.96
2019-04-27T00:26:16.692Z,10.94
2019-04-27T00:28:45.163Z,10.95
2019-04-27T00:31:13.658Z,10.97
2019-04-27T00:33:43.481Z,10.94
2019-04-27T00:36:29.884Z,10.95
2019-04-27T00:39:03.539Z,10.88
2019-04-27T00:41:33.994Z,10.90
2019-04-27T00:44:03.441Z,10.93
2019-04-27T00:46:33.048Z,10.91
2019-04-27T00:49:01.679Z,10.86
2019-04-27T00:51:33.225Z,10.84
2019-04-27T00:54:01.873Z,10.82
2019-04-27T00:56:44.265Z,10.79
2019-04-27T00:59:17.008Z,10.71
2019-04-27T01:01:53.451Z,10.73
2019-04-27T01:04:26.139Z,10.70
2019-04-27T01:06:54.634Z,10.71
2019-04-27T01:09:23.661Z,10.71
2019-04-27T01:11:53.454Z,10.67
2019-04-27T01:14:23.087Z,10.64
2019-04-27T01:16:51.686Z,10.59
2019-04-27T01:19:20.110Z,10.57
2019-04-27T01:21:49.655Z,10.56
2019-04-27T01:24:18.887Z,10.57
2019-04-27T01:26:52.182Z,10.54
2019-04-27T01:29:25.177Z,10.53
2019-04-27T01:31:53.659Z,10.47
2019-04-27T01:34:22.071Z,10.45
2019-04-27T01:36:50.528Z,10.43
2019-04-27T01:39:19.022Z,10.41
2019-04-27T01:41:49.057Z,10.39
2019-04-27T01:44:19.258Z,10.34
2019-04-27T01:46:48.678Z,10.35
2019-04-27T01:49:19.263Z,10.40
2019-04-27T01:51:49.259Z,10.33
2019-04-27T01:54:19.657Z,10.33
2019-04-27T01:56:49.238Z,10.31
2019-04-27T01:59:17.810Z,10.32
2019-04-27T02:01:48.932Z,10.33
2019-04-27T02:04:33.178Z,10.34
2019-04-27T02:07:03.521Z,10.32
2019-04-27T02:09:31.957Z,10.32
2019-04-27T02:12:02.235Z,10.27
2019-04-27T02:14:30.679Z,10.27
2019-04-27T02:16:59.578Z,10.26
2019-04-27T02:19:29.236Z,10.21
2019-04-27T02:21:59.770Z,10.20
2019-04-27T02:24:28.780Z,10.18
2019-04-27T02:26:58.718Z,10.15
2019-04-27T02:29:31.481Z,10.12
2019-04-27T02:32:20.165Z,10.15
2019-04-27T02:34:52.172Z,10.16
2019-04-27T02:37:20.662Z,10.17
2019-04-27T02:39:50.033Z,10.18
2019-04-27T02:42:20.002Z,10.18
2019-04-27T02:44:49.457Z,10.17
2019-04-27T02:47:20.690Z,10.09
2019-04-27T02:49:50.820Z,10.09
2019-04-27T02:52:23.248Z,10.09
2019-04-27T02:54:51.657Z,10.09
2019-04-27T02:57:20.239Z,10.08
2019-04-27T02:59:50.303Z,10.08
2019-04-27T03:02:20.397Z,10.10
2019-04-27T03:04:49.906Z,10.05
2019-04-27T03:07:20.038Z,10.04
2019-04-27T03:09:50.991Z,10.05
2019-04-27T03:12:20.554Z,10.00
2019-04-27T03:15:01.832Z,9.97
2019-04-27T03:17:43.778Z,9.98
2019-04-27T03:20:30.051Z,9.99
2019-04-27T03:23:00.406Z,9.92
2019-04-27T03:25:36.429Z,9.95
2019-04-27T03:28:10.722Z,9.95
2019-04-27T03:30:42.239Z,9.93
2019-04-27T03:33:11.875Z,9.90
2019-04-27T03:35:42.882Z,9.91
2019-04-27T03:38:12.467Z,9.89
2019-04-27T03:40:40.552Z,9.91
2019-04-27T03:43:11.735Z,9.85
2019-04-27T03:45:40.361Z,9.82
2019-04-27T03:48:10.306Z,9.82
2019-04-27T03:50:50.584Z,9.85
2019-04-27T03:53:39.739Z,9.86
2019-04-27T03:56:22.080Z,9.81
2019-04-27T03:58:55.248Z,9.82
2019-04-27T04:01:23.651Z,9.81
2019-04-27T04:03:52.137Z,9.79
2019-04-27T04:06:20.620Z,9.83
2019-04-27T04:08:51.639Z,9.84
2019-04-27T04:11:27.099Z,9.83
2019-04-27T04:13:57.174Z,9.77
2019-04-27T04:16:29.524Z,9.81
2019-04-27T04:19:00.872Z,9.81
2019-04-27T04:21:29.981Z,9.80
2019-04-27T04:24:00.928Z,9.84
2019-04-27T04:26:32.165Z,9.84
2019-04-27T04:28:59.814Z,9.87
2019-04-27T04:31:29.811Z,9.89
2019-04-27T04:33:59.694Z,9.89
2019-04-27T04:36:30.150Z,9.84
2019-04-27T04:39:00.501Z,9.83
2019-04-27T04:41:33.498Z,9.83
2019-04-27T04:44:06.678Z,9.84
2019-04-27T04:46:42.742Z,9.86
2019-04-27T04:49:11.136Z,9.86
2019-04-27T04:51:40.151Z,9.86
2019-04-27T04:54:09.495Z,9.88
2019-04-27T04:56:39.231Z,9.84
2019-04-27T04:59:09.947Z,9.86
2019-04-27T05:01:39.942Z,9.89
2019-04-27T05:04:09.107Z,9.92
2019-04-27T05:06:38.955Z,9.92
2019-04-27T05:09:09.257Z,9.97
2019-04-27T05:11:39.499Z,9.98
2019-04-27T05:14:09.854Z,10.01
2019-04-27T05:16:39.053Z,10.06
2019-04-27T05:19:11.043Z,10.08
2019-04-27T05:21:38.897Z,10.10
2019-04-27T05:24:09.417Z,10.15
2019-04-27T05:26:39.598Z,10.17
2019-04-27T05:29:09.150Z,10.23
2019-04-27T05:31:38.819Z,10.27
2019-04-27T05:34:09.358Z,10.28
2019-04-27T05:36:41.644Z,10.31
2019-04-27T05:39:09.718Z,10.35
2019-04-27T05:41:41.227Z,10.34
2019-04-27T05:44:12.769Z,10.35
2019-04-27T05:46:41.705Z,10.38
2019-04-27T05:49:30.205Z,10.40
2019-04-27T05:51:59.399Z,10.43
2019-04-27T05:54:29.423Z,10.42
2019-04-27T05:56:59.187Z,10.43
2019-04-27T05:59:29.661Z,10.45
2019-04-27T06:01:59.301Z,10.44
2019-04-27T06:04:29.109Z,10.47
2019-04-27T06:07:00.490Z,10.48
2019-04-27T06:09:28.973Z,10.46
2019-04-27T06:11:59.079Z,10.46
2019-04-27T06:14:29.268Z,10.45
2019-04-27T06:16:59.586Z,10.45
2019-04-27T06:19:29.130Z,10.43
2019-04-27T06:21:59.455Z,10.41
2019-04-27T06:24:29.609Z,10.45
2019-04-27T06:26:59.654Z,10.45
2019-04-27T06:29:29.253Z,10.49
2019-04-27T06:31:59.366Z,10.49
2019-04-27T06:34:30.673Z,10.47
2019-04-27T06:36:59.738Z,10.42
2019-04-27T06:39:29.811Z,10.43
2019-04-27T06:41:59.059Z,10.45
2019-04-27T06:44:29.359Z,10.41
2019-04-27T06:46:59.133Z,10.41
2019-04-27T06:49:29.393Z,10.43
2019-04-27T06:51:58.673Z,7.71
2019-04-27T06:54:28.913Z,10.42
2019-04-27T06:56:59.249Z,10.44
2019-04-27T06:59:28.851Z,10.46
2019-04-27T07:02:00.530Z,10.48
2019-04-27T07:04:29.375Z,10.52
2019-04-27T07:07:01.411Z,10.51
2019-04-27T07:09:29.496Z,10.58
2019-04-27T07:11:59.304Z,10.59
2019-04-27T07:14:29.440Z,10.60
2019-04-27T07:16:59.134Z,10.60
2019-04-27T07:19:28.730Z,10.60
2019-04-27T07:21:57.092Z,10.66
2019-04-27T07:24:25.501Z,10.70
2019-04-27T07:26:53.993Z,10.69
2019-04-27T07:29:23.227Z,10.69
2019-04-27T07:31:51.766Z,10.65
2019-04-27T07:34:20.193Z,10.61
2019-04-27T07:36:49.208Z,10.58
2019-04-27T07:39:19.199Z,10.56
2019-04-27T07:41:48.798Z,10.53
2019-04-27T07:44:31.421Z,10.52
2019-04-27T07:47:16.210Z,10.53
2019-04-27T07:49:45.567Z,10.54
2019-04-27T07:52:14.171Z,10.59
2019-04-27T07:54:43.126Z,10.59
2019-04-27T07:57:11.678Z,10.60
2019-04-27T07:59:41.978Z,10.66
2019-04-27T08:02:11.019Z,10.68
2019-04-27T08:04:40.105Z,10.65
2019-04-27T08:07:09.193Z,10.67
2019-04-27T08:09:39.627Z,10.73
2019-04-27T08:12:07.926Z,10.75
2019-04-27T08:14:36.401Z,10.82
2019-04-27T08:17:04.886Z,10.88
2019-04-27T08:19:33.380Z,10.88
2019-04-27T08:22:02.221Z,10.84
2019-04-27T08:24:30.654Z,10.85
2019-04-27T08:27:06.394Z,10.84
2019-04-27T08:29:36.463Z,10.80
2019-04-27T08:32:06.684Z,10.82
2019-04-27T08:34:39.728Z,10.84
2019-04-27T08:37:09.125Z,10.79
2019-04-27T08:39:39.487Z,10.77
2019-04-27T08:42:09.507Z,10.71
2019-04-27T08:44:39.738Z,10.73
2019-04-27T08:47:09.561Z,10.53
2019-04-27T08:49:39.394Z,10.73
2019-04-27T08:52:09.362Z,10.82
2019-04-27T08:54:39.399Z,10.92
2019-04-27T08:57:09.677Z,11.01
2019-04-27T08:59:39.294Z,11.04
2019-04-27T09:02:08.783Z,11.06
2019-04-27T09:04:39.272Z,11.06
2019-04-27T09:07:25.850Z,11.04
2019-04-27T09:09:59.648Z,11.08
2019-04-27T09:12:46.271Z,11.15
2019-04-27T09:15:25.245Z,11.18
2019-04-27T09:18:00.641Z,11.19
2019-04-27T09:20:46.958Z,11.26
2019-04-27T09:23:15.475Z,11.21
2019-04-27T09:25:43.883Z,11.18
2019-04-27T09:28:12.300Z,11.18
2019-04-27T09:30:40.787Z,11.20
2019-04-27T09:33:09.365Z,11.29
2019-04-27T09:35:37.788Z,11.29
2019-04-27T09:38:07.055Z,11.25
2019-04-27T09:40:36.041Z,11.26
2019-04-27T09:43:04.640Z,11.22
2019-04-27T09:45:33.147Z,11.14
2019-04-27T09:48:01.545Z,11.10
2019-04-27T09:50:30.053Z,11.01
2019-04-27T09:52:58.447Z,10.34
2019-04-27T09:55:26.921Z,9.43
2019-04-27T09:57:56.936Z,9.21
2019-04-27T10:00:27.752Z,9.08
2019-04-27T10:02:56.542Z,9.10
2019-04-27T10:05:26.313Z,9.23
2019-04-27T10:07:56.749Z,9.28
2019-04-27T10:10:26.727Z,9.49
2019-04-27T10:12:56.867Z,9.60
2019-04-27T10:15:26.655Z,9.63
2019-04-27T10:17:55.999Z,9.71
2019-04-27T10:20:25.390Z,9.76
2019-04-27T10:22:53.950Z,9.86
2019-04-27T10:25:24.073Z,9.84
2019-04-27T10:27:58.687Z,9.95
2019-04-27T10:30:27.396Z,9.89
2019-04-27T10:32:55.826Z,10.00
2019-04-27T10:35:25.975Z,9.98
2019-04-27T10:37:54.598Z,9.84
2019-04-27T10:40:23.135Z,9.71
2019-04-27T10:42:51.690Z,9.69
2019-04-27T10:45:20.109Z,9.66
2019-04-27T10:47:49.641Z,9.62
2019-04-27T10:50:18.548Z,9.75
2019-04-27T10:52:53.255Z,9.83
2019-04-27T10:55:17.286Z,9.92
2019-04-27T10:57:45.777Z,9.88
2019-04-27T11:00:16.800Z,9.98
2019-04-27T11:02:45.362Z,10.09
2019-04-27T11:05:16.161Z,10.07
2019-04-27T11:07:46.265Z,10.05
2019-04-27T11:10:16.314Z,10.01
2019-04-27T11:12:45.780Z,9.97
2019-04-27T11:15:16.382Z,10.00
2019-04-27T11:17:45.821Z,9.89
2019-04-27T11:20:15.487Z,9.76
2019-04-27T11:22:44.004Z,9.65
2019-04-27T11:25:12.840Z,9.72
2019-04-27T11:27:41.238Z,9.81
2019-04-27T11:30:10.793Z,9.72
2019-04-27T11:32:39.359Z,9.68
2019-04-27T11:35:22.590Z,9.72
2019-04-27T11:37:52.654Z,9.73
2019-04-27T11:40:23.100Z,9.73
2019-04-27T11:42:51.539Z,9.81
2019-04-27T11:45:20.173Z,9.73
2019-04-27T11:47:48.671Z,9.83
2019-04-27T11:50:17.529Z,9.87
2019-04-27T11:52:45.956Z,9.88
2019-04-27T11:55:16.167Z,9.66
2019-04-27T11:57:44.810Z,9.22
2019-04-27T12:00:18.162Z,7.07
2019-04-27T12:02:46.577Z,9.09
2019-04-27T12:05:16.137Z,9.20
2019-04-27T12:07:47.396Z,9.24
2019-04-27T12:10:16.459Z,9.33
2019-04-27T12:12:46.384Z,9.46
2019-04-27T12:15:16.227Z,9.56
2019-04-27T12:17:46.115Z,9.67
2019-04-27T12:20:17.506Z,9.88
2019-04-27T12:22:45.100Z,10.06
2019-04-27T12:25:14.783Z,10.11
2019-04-27T12:27:45.841Z,10.27
2019-04-27T12:30:26.227Z,10.41
2019-04-27T12:32:55.769Z,10.34
2019-04-27T12:35:25.727Z,10.49
2019-04-27T12:37:55.840Z,10.92
2019-04-27T12:40:26.684Z,10.98
2019-04-27T12:42:54.798Z,10.85
2019-04-27T12:45:23.551Z,10.87
2019-04-27T12:47:52.085Z,10.96
2019-04-27T12:50:20.686Z,11.07
2019-04-27T12:52:50.784Z,12.04
2019-04-27T12:55:33.123Z,12.36
2019-04-27T12:58:06.316Z,13.40
2019-04-27T13:00:39.542Z,13.85
2019-04-27T13:03:08.091Z,14.33
2019-04-27T13:05:36.502Z,14.51
2019-04-27T13:08:04.981Z,14.55
2019-04-27T13:10:33.404Z,14.75
2019-04-27T13:13:01.903Z,15.05
2019-04-27T13:15:30.325Z,15.45
2019-04-27T13:17:58.823Z,15.57
2019-04-27T13:20:27.291Z,15.50
2019-04-27T13:22:55.774Z,15.61
2019-04-27T13:25:24.207Z,15.12
2019-04-27T13:27:52.608Z,15.40
2019-04-27T13:30:21.147Z,15.57
2019-04-27T13:32:49.599Z,15.70
2019-04-27T13:35:18.100Z,15.93
2019-04-27T13:37:46.805Z,16.10
2019-04-27T13:40:18.454Z,15.69
2019-04-27T13:42:53.568Z,14.49
2019-04-27T13:45:26.650Z,15.11
2019-04-27T13:48:12.746Z,15.24
2019-04-27T13:50:45.739Z,14.01
2019-04-27T13:53:14.219Z,13.10
2019-04-27T13:55:42.635Z,12.75
2019-04-27T13:58:11.117Z,12.62
2019-04-27T14:00:39.600Z,12.34
2019-04-27T14:03:08.131Z,12.23
2019-04-27T14:05:36.616Z,12.08
2019-04-27T14:08:05.155Z,11.93
2019-04-27T14:10:33.577Z,11.93
2019-04-27T14:13:02.022Z,11.89
2019-04-27T14:15:30.432Z,11.94
2019-04-27T14:17:59.229Z,11.78
2019-04-27T14:20:28.770Z,11.67
2019-04-27T14:23:03.353Z,11.66
2019-04-27T14:25:29.025Z,11.80
2019-04-27T14:27:58.412Z,12.58
2019-04-27T14:30:26.922Z,13.21
2019-04-27T14:32:55.338Z,13.35
2019-04-27T14:35:23.752Z,13.34
2019-04-27T14:37:52.180Z,13.71
2019-04-27T14:40:20.599Z,13.65
2019-04-27T14:42:50.561Z,13.54
2019-04-27T14:45:19.234Z,13.70
2019-04-27T14:47:48.191Z,13.78
2019-04-27T14:50:18.708Z,13.83
2019-04-27T14:52:48.558Z,13.87
2019-04-27T14:55:17.144Z,13.82
2019-04-27T14:57:45.533Z,13.48
2019-04-27T15:00:15.945Z,13.54
2019-04-27T15:02:44.429Z,13.25
2019-04-27T15:05:13.315Z,13.19
2019-04-27T15:07:41.715Z,13.16
2019-04-27T15:10:10.979Z,12.94
2019-04-27T15:12:39.513Z,12.59
2019-04-27T15:15:08.157Z,12.32
2019-04-27T15:17:36.945Z,11.95
2019-04-27T15:20:08.910Z,11.34
2019-04-27T15:22:40.208Z,11.09
2019-04-27T15:25:13.697Z,10.97
2019-04-27T15:27:42.314Z,10.92
2019-04-27T15:30:19.017Z,10.88
2019-04-27T15:32:52.404Z,10.77
2019-04-27T15:35:22.583Z,10.98
2019-04-27T15:37:55.548Z,11.14
2019-04-27T15:40:31.410Z,11.42
2019-04-27T15:43:01.529Z,11.68
2019-04-27T15:45:30.041Z,11.87
2019-04-27T15:47:58.496Z,12.12
2019-04-27T15:50:28.496Z,12.22
2019-04-27T15:52:57.094Z,12.34
2019-04-27T15:55:34.506Z,12.38
2019-04-27T15:57:55.750Z,12.16
2019-04-27T16:00:26.147Z,12.10
2019-04-27T16:02:54.626Z,11.83
2019-04-27T16:05:23.529Z,11.65
2019-04-27T16:07:53.326Z,11.54
2019-04-27T16:10:24.674Z,11.47
2019-04-27T16:13:05.874Z,11.43
2019-04-27T16:15:23.240Z,11.38
2019-04-27T16:17:55.855Z,11.32
2019-04-27T16:20:29.169Z,11.35
2019-04-27T16:22:52.113Z,11.30
2019-04-27T16:25:23.620Z,11.26
2019-04-27T16:27:50.654Z,11.19
2019-04-27T16:30:20.623Z,11.15
2019-04-27T16:32:49.358Z,11.06
2019-04-27T16:35:21.593Z,10.95
2019-04-27T16:37:52.021Z,10.85
2019-04-27T16:40:24.351Z,10.86
2019-04-27T16:42:54.339Z,10.80
2019-04-27T16:45:22.848Z,10.65
2019-04-27T16:47:52.123Z,10.62
2019-04-27T16:50:25.475Z,10.67
2019-04-27T16:52:57.104Z,10.64
2019-04-27T16:55:21.502Z,10.66
2019-04-27T16:57:49.942Z,10.58
2019-04-27T17:00:22.719Z,10.48
2019-04-27T17:02:50.015Z,10.48
2019-04-27T17:05:18.506Z,10.55
2019-04-27T17:07:46.981Z,10.51
2019-04-27T17:10:16.273Z,10.49
2019-04-27T17:12:51.180Z,10.57
2019-04-27T17:15:41.911Z,10.58
2019-04-27T17:18:24.289Z,10.51
2019-04-27T17:20:59.266Z,10.59
2019-04-27T17:23:29.052Z,10.70
2019-04-27T17:26:04.446Z,10.73
2019-04-27T17:28:48.571Z,10.83
2019-04-27T17:31:21.117Z,10.72
2019-04-27T17:34:01.836Z,10.82
2019-04-27T17:36:30.315Z,10.82
2019-04-27T17:38:58.860Z,10.85
2019-04-27T17:41:28.322Z,10.76
2019-04-27T17:43:58.948Z,10.74
2019-04-27T17:46:28.169Z,10.71
2019-04-27T17:48:58.577Z,10.75
2019-04-27T17:51:30.561Z,10.72
2019-04-27T17:53:58.658Z,10.70
2019-04-27T17:56:34.022Z,10.62
2019-04-27T17:58:58.572Z,10.57
2019-04-27T18:01:30.190Z,10.52
2019-04-27T18:03:59.999Z,10.54
2019-04-27T18:06:29.593Z,10.53
2019-04-27T18:09:00.834Z,10.57
2019-04-27T18:11:28.737Z,10.57
2019-04-27T18:14:00.474Z,10.58
2019-04-27T18:16:30.342Z,10.57
2019-04-27T18:19:08.053Z,10.55
2019-04-27T18:21:31.303Z,10.54
2019-04-27T18:24:04.324Z,10.26
2019-04-27T18:26:50.105Z,9.91
2019-04-27T18:29:18.334Z,9.53
2019-04-27T18:31:53.348Z,8.92
2019-04-27T18:34:17.394Z,8.53
2019-04-27T18:36:47.000Z,8.35
2019-04-27T18:39:15.410Z,8.28
2019-04-27T18:41:49.176Z,8.29
2019-04-27T18:44:14.042Z,8.41
2019-04-27T18:46:42.472Z,8.36
2019-04-27T18:49:22.560Z,8.29
2019-04-27T18:51:57.812Z,8.32
2019-04-27T18:54:23.430Z,8.58
2019-04-27T18:57:02.230Z,8.69
2019-04-27T18:59:21.989Z,8.80
2019-04-27T19:01:50.474Z,8.95
2019-04-27T19:04:19.060Z,9.02
2019-04-27T19:06:47.429Z,9.13
2019-04-27T19:09:18.629Z,9.26
2019-04-27T19:11:55.810Z,9.34
2019-04-27T19:14:18.879Z,9.39
2019-04-27T19:16:48.433Z,9.44
2019-04-27T19:19:18.815Z,7.29
2019-04-27T19:21:48.597Z,9.46
2019-04-27T19:24:19.061Z,9.47
2019-04-27T19:26:49.072Z,9.49
2019-04-27T19:29:24.870Z,9.49
2019-04-27T19:31:58.624Z,9.45
2019-04-27T19:34:28.638Z,9.43
2019-04-27T19:36:59.049Z,9.44
2019-04-27T19:39:28.605Z,9.45
2019-04-27T19:42:01.391Z,9.45
2019-04-27T19:44:29.156Z,9.45
2019-04-27T19:46:59.981Z,9.47
2019-04-27T19:49:31.235Z,9.47
2019-04-27T19:51:58.853Z,9.42
2019-04-27T19:54:29.890Z,9.42
2019-04-27T19:56:59.521Z,9.33
2019-04-27T19:59:29.536Z,9.30
2019-04-27T20:01:59.615Z,9.35
2019-04-27T20:04:30.735Z,9.39
2019-04-27T20:06:59.390Z,9.33
2019-04-27T20:09:35.554Z,9.28
2019-04-27T20:12:05.223Z,9.29
2019-04-27T20:14:35.880Z,9.28
2019-04-27T20:17:04.449Z,9.29
2019-04-27T20:19:32.883Z,9.28
2019-04-27T20:22:01.309Z,9.28
2019-04-27T20:24:31.400Z,9.26
2019-04-27T20:27:00.656Z,9.23
2019-04-27T20:29:31.682Z,9.25
2019-04-27T20:32:01.192Z,9.28
2019-04-27T20:34:31.093Z,9.30
2019-04-27T20:37:01.298Z,9.24
2019-04-27T20:39:30.081Z,9.22
2019-04-27T20:41:58.512Z,9.24
2019-04-27T20:44:26.969Z,9.27
2019-04-27T20:46:55.498Z,9.29
2019-04-27T20:49:23.952Z,9.31
2019-04-27T20:52:06.234Z,9.29
2019-04-27T20:54:34.678Z,9.31
2019-04-27T20:57:03.107Z,9.27
2019-04-27T20:59:31.588Z,9.27
2019-04-27T21:02:01.742Z,9.33
2019-04-27T21:04:41.880Z,9.37
2019-04-27T21:07:11.927Z,9.41
2019-04-27T21:09:41.435Z,9.37
2019-04-27T21:12:09.950Z,9.31
2019-04-27T21:14:38.386Z,9.16
2019-04-27T21:17:06.831Z,9.14
2019-04-27T21:19:35.235Z,9.05
2019-04-27T21:22:16.555Z,9.02
2019-04-27T21:24:44.976Z,9.04
2019-04-27T21:27:13.450Z,9.12
2019-04-27T21:29:42.115Z,9.14
2019-04-27T21:32:11.143Z,9.17
2019-04-27T21:34:41.328Z,9.22
2019-04-27T21:37:11.072Z,9.27
2019-04-27T21:39:39.537Z,9.26
2019-04-27T21:42:07.958Z,9.29
2019-04-27T21:44:36.382Z,9.29
2019-04-27T21:47:04.784Z,9.27
2019-04-27T21:49:33.240Z,9.26
2019-04-27T21:52:03.384Z,9.20
2019-04-27T21:54:41.034Z,9.19
2019-04-27T21:57:11.018Z,9.19
2019-04-27T21:59:39.685Z,9.20
2019-04-27T22:02:11.977Z,9.19
2019-04-27T22:04:41.663Z,9.15
2019-04-27T22:07:11.549Z,9.15
2019-04-27T22:09:43.069Z,9.17
2019-04-27T22:12:11.232Z,9.07
2019-04-27T22:14:39.722Z,9.13
2019-04-27T22:17:08.195Z,9.08
2019-04-27T22:19:36.684Z,9.12
2019-04-27T22:22:06.898Z,9.11
2019-04-27T22:24:37.069Z,9.07
2019-04-27T22:27:05.593Z,9.11
2019-04-27T22:29:34.092Z,9.13
2019-04-27T22:32:02.691Z,9.14
2019-04-27T22:34:31.361Z,9.17
2019-04-27T22:37:02.297Z,9.14
2019-04-27T22:39:34.448Z,9.12
2019-04-27T22:42:23.124Z,9.14
2019-04-27T22:44:52.853Z,9.10
2019-04-27T22:47:21.614Z,9.09
2019-04-27T22:49:50.142Z,9.11
2019-04-27T22:52:18.589Z,9.08
2019-04-27T22:54:47.039Z,9.05
2019-04-27T22:57:17.103Z,9.10
2019-04-27T22:59:52.610Z,9.09
2019-04-27T23:02:22.651Z,9.10
2019-04-27T23:05:02.461Z,9.09
2019-04-27T23:07:31.558Z,9.10
2019-04-27T23:10:01.548Z,9.04
2019-04-27T23:12:31.711Z,9.02
2019-04-27T23:15:00.326Z,9.00
2019-04-27T23:17:41.490Z,8.96
2019-04-27T23:20:11.475Z,8.93
2019-04-27T23:22:40.088Z,8.98
2019-04-27T23:25:08.649Z,8.99
2019-04-27T23:27:37.074Z,8.99
2019-04-27T23:30:06.823Z,9.03
2019-04-27T23:32:37.861Z,9.03
2019-04-27T23:35:07.195Z,8.99
2019-04-27T23:37:35.608Z,9.03
2019-04-27T23:40:06.045Z,9.01
2019-04-27T23:42:34.625Z,8.99
2019-04-27T23:45:03.211Z,8.98
2019-04-27T23:47:31.616Z,8.99
2019-04-27T23:50:00.860Z,8.96
2019-04-27T23:52:47.667Z,8.97
2019-04-27T23:55:16.261Z,8.97
2019-04-27T23:57:44.761Z,8.94
